Ford Heights, Illinois
Current Conditions -  °F | °C
As of 1:35 AM on Sunday 23 Nov 2014 (Local Time) from KIGQ Reporting Station
Overcast Overcast  
Wind Chill:   Ceiling: 6000
Heat Index:   Visibility: 10mi
Dew Point:   Wind: 13mph
Humidity: 89%   Direction: 200°SSW
Pressure: 29.86"   Gusts: 17mph
Location:  41.5054°N, 87.5907°W
Report Text: KIGQ 230735Z AUTO 20011G15KT 10SM SCT015 SCT023 OVC060 09/07 A2986 RMK AO2 T00910074
Loading
Personal Weather Stations






























Interactive Weather Map New forecast layout! Learn more

10-Day Weather Forecast

Advertisements
Track Severe Weather on mobile